createdAt,value
2023-04-09T00:01:32.973Z,66.37
2023-04-09T00:04:01.748Z,65.90
2023-04-09T00:06:30.073Z,66.11
2023-04-09T00:08:58.347Z,66.57
2023-04-09T00:11:29.350Z,66.98
2023-04-09T00:13:58.935Z,67.19
2023-04-09T00:16:27.380Z,67.06
2023-04-09T00:18:56.512Z,66.73
2023-04-09T00:21:24.897Z,66.69
2023-04-09T00:23:53.539Z,66.82
2023-04-09T00:26:21.621Z,67.19
2023-04-09T00:28:52.470Z,67.44
2023-04-09T00:31:22.355Z,67.63
2023-04-09T00:33:50.888Z,67.77
2023-04-09T00:36:19.100Z,67.90
2023-04-09T00:38:48.776Z,67.87
2023-04-09T00:41:18.380Z,67.78
2023-04-09T00:43:46.911Z,67.99
2023-04-09T00:46:16.341Z,68.29
2023-04-09T00:48:44.647Z,68.42
2023-04-09T00:51:13.034Z,68.58
2023-04-09T00:53:44.198Z,68.67
2023-04-09T00:56:12.547Z,68.75
2023-04-09T00:58:41.381Z,68.94
2023-04-09T01:01:09.452Z,68.98
2023-04-09T01:03:37.997Z,68.85
2023-04-09T01:06:11.504Z,68.98
2023-04-09T01:08:58.357Z,68.83
2023-04-09T01:11:59.693Z,68.33
2023-04-09T01:14:53.638Z,68.07
2023-04-09T01:17:38.276Z,67.63
2023-04-09T01:20:14.963Z,67.41
2023-04-09T01:22:58.935Z,67.37
2023-04-09T01:25:40.599Z,67.26
2023-04-09T01:28:20.036Z,67.24
2023-04-09T01:30:49.883Z,66.99
2023-04-09T01:33:19.561Z,66.79
2023-04-09T01:35:48.683Z,66.58
2023-04-09T01:38:18.985Z,66.65
2023-04-09T01:40:47.873Z,67.03
2023-04-09T01:43:17.530Z,67.18
2023-04-09T01:45:47.431Z,67.06
2023-04-09T01:48:16.411Z,66.95
2023-04-09T01:50:47.433Z,66.88
2023-04-09T01:53:15.726Z,66.85
2023-04-09T01:55:44.305Z,66.63
2023-04-09T01:58:12.339Z,66.51
2023-04-09T02:00:47.055Z,66.53
2023-04-09T02:03:20.019Z,66.68
2023-04-09T02:05:56.549Z,66.68
2023-04-09T02:08:25.235Z,66.52
2023-04-09T02:10:55.919Z,66.45
2023-04-09T02:13:26.082Z,66.46
2023-04-09T02:15:58.790Z,66.32
2023-04-09T02:18:28.778Z,66.33
2023-04-09T02:20:57.275Z,66.27
2023-04-09T02:23:27.803Z,66.24
2023-04-09T02:25:56.076Z,66.34
2023-04-09T02:28:26.499Z,66.75
2023-04-09T02:30:55.110Z,66.89
2023-04-09T02:33:23.455Z,67.10
2023-04-09T02:35:51.913Z,67.27
2023-04-09T02:38:21.358Z,67.02
2023-04-09T02:40:55.158Z,66.80
2023-04-09T02:43:24.872Z,66.59
2023-04-09T02:45:53.149Z,66.52
2023-04-09T02:48:22.143Z,66.63
2023-04-09T02:50:51.446Z,66.68
2023-04-09T02:53:21.685Z,66.59
2023-04-09T02:55:50.451Z,66.60
2023-04-09T02:58:19.065Z,66.70
2023-04-09T03:00:49.613Z,66.64
2023-04-09T03:03:18.438Z,66.69
2023-04-09T03:05:47.040Z,66.77
2023-04-09T03:08:15.130Z,66.86
2023-04-09T03:10:46.464Z,67.16
2023-04-09T03:13:15.562Z,67.65
2023-04-09T03:15:46.609Z,67.95
2023-04-09T03:18:17.120Z,67.52
2023-04-09T03:20:45.511Z,67.38
2023-04-09T03:23:19.931Z,67.73
2023-04-09T03:25:49.159Z,67.76
2023-04-09T03:28:18.166Z,67.95
2023-04-09T03:30:49.266Z,68.14
2023-04-09T03:33:19.709Z,68.11
2023-04-09T03:35:53.267Z,68.04
2023-04-09T03:38:30.103Z,68.24
2023-04-09T03:40:59.581Z,68.25
2023-04-09T03:44:34.211Z,68.97
2023-04-09T03:47:09.250Z,68.36
2023-04-09T03:49:38.400Z,68.28
2023-04-09T03:52:14.916Z,68.41
2023-04-09T03:54:45.852Z,68.41
2023-04-09T03:57:17.919Z,68.25
2023-04-09T03:59:52.132Z,68.25
2023-04-09T04:02:22.560Z,68.42
2023-04-09T04:04:58.516Z,68.40
2023-04-09T04:07:30.082Z,68.30
2023-04-09T04:10:05.716Z,68.35
2023-04-09T04:12:35.712Z,68.30
2023-04-09T04:15:08.473Z,68.25
2023-04-09T04:17:56.619Z,68.40
2023-04-09T04:20:40.266Z,68.39
2023-04-09T04:23:31.267Z,68.37
2023-04-09T04:26:11.270Z,68.24
2023-04-09T04:28:40.039Z,68.06
2023-04-09T04:31:10.829Z,67.94
2023-04-09T04:33:41.310Z,67.91
2023-04-09T04:36:13.580Z,67.76
2023-04-09T04:38:46.366Z,67.53
2023-04-09T04:41:42.951Z,67.61
2023-04-09T04:44:16.333Z,67.35
2023-04-09T04:46:47.053Z,67.35
2023-04-09T04:49:15.824Z,67.42
2023-04-09T04:51:49.213Z,67.56
2023-04-09T04:54:17.700Z,67.71
2023-04-09T04:56:52.326Z,67.71
2023-04-09T04:59:38.982Z,67.50
2023-04-09T05:02:08.559Z,67.30
2023-04-09T05:04:56.089Z,67.48
2023-04-09T05:07:31.717Z,67.68
2023-04-09T05:10:00.095Z,67.63
2023-04-09T05:12:36.527Z,67.61
2023-04-09T05:15:08.906Z,67.39
2023-04-09T05:17:43.285Z,67.30
2023-04-09T05:20:12.763Z,67.35
2023-04-09T05:23:13.850Z,67.43
2023-04-09T05:25:49.480Z,67.36
2023-04-09T05:28:26.540Z,67.18
2023-04-09T05:31:13.510Z,66.89
2023-04-09T05:33:46.818Z,66.67
2023-04-09T05:36:20.048Z,66.71
2023-04-09T05:38:56.207Z,66.63
2023-04-09T05:41:24.606Z,66.53
2023-04-09T05:44:13.190Z,66.09
2023-04-09T05:46:46.340Z,65.78
2023-04-09T05:49:16.668Z,65.42
2023-04-09T05:51:45.552Z,64.92
2023-04-09T05:54:17.378Z,64.83
2023-04-09T05:56:46.596Z,64.78
2023-04-09T05:59:21.010Z,64.42
2023-04-09T06:01:51.674Z,64.26
2023-04-09T06:04:20.897Z,64.45
2023-04-09T06:06:53.648Z,64.18
2023-04-09T06:09:21.969Z,63.87
2023-04-09T06:11:50.402Z,64.08
2023-04-09T06:14:18.715Z,63.94
2023-04-09T06:16:51.373Z,63.95
2023-04-09T06:19:19.902Z,63.96
2023-04-09T06:21:48.431Z,63.90
2023-04-09T06:24:17.417Z,63.76
2023-04-09T06:26:46.206Z,63.54
2023-04-09T06:29:14.384Z,63.38
2023-04-09T06:31:43.909Z,63.12
2023-04-09T06:34:12.011Z,62.74
2023-04-09T06:36:44.128Z,62.52
2023-04-09T06:39:12.508Z,62.39
2023-04-09T06:41:40.847Z,62.21
2023-04-09T06:44:26.305Z,61.96
2023-04-09T06:46:54.550Z,61.67
2023-04-09T06:49:27.991Z,61.38
2023-04-09T06:51:56.517Z,61.11
2023-04-09T06:54:25.002Z,61.11
2023-04-09T06:56:58.706Z,60.94
2023-04-09T06:59:27.596Z,60.33
2023-04-09T07:01:56.740Z,60.03
2023-04-09T07:04:26.434Z,60.09
2023-04-09T07:06:55.404Z,59.98
2023-04-09T07:09:23.404Z,59.62
2023-04-09T07:11:52.869Z,59.66
2023-04-09T07:14:21.250Z,59.54
2023-04-09T07:16:49.351Z,59.50
2023-04-09T07:19:18.316Z,59.34
2023-04-09T07:21:47.523Z,58.99
2023-04-09T07:24:16.011Z,58.86
2023-04-09T07:26:44.270Z,58.69
2023-04-09T07:29:12.854Z,58.51
2023-04-09T07:31:41.355Z,58.49
2023-04-09T07:34:11.145Z,58.19
2023-04-09T07:36:41.290Z,57.53
2023-04-09T07:39:09.300Z,56.66
2023-04-09T07:41:37.720Z,56.52
2023-04-09T07:44:07.655Z,56.57
2023-04-09T07:46:36.676Z,56.07
2023-04-09T07:49:06.131Z,55.86
2023-04-09T07:51:34.149Z,55.49
2023-04-09T07:54:02.692Z,55.38
2023-04-09T07:56:32.405Z,55.35
2023-04-09T07:59:00.479Z,55.23
2023-04-09T08:01:28.750Z,55.13
2023-04-09T08:03:58.244Z,55.29
2023-04-09T08:06:27.248Z,55.01
2023-04-09T08:08:55.425Z,54.73
2023-04-09T08:11:26.264Z,54.69
2023-04-09T08:13:54.744Z,54.60
2023-04-09T08:16:28.212Z,54.25
2023-04-09T08:18:57.545Z,53.39
2023-04-09T08:21:26.800Z,52.53
2023-04-09T08:23:59.635Z,52.14
2023-04-09T08:26:27.903Z,52.27
2023-04-09T08:28:56.012Z,52.44
2023-04-09T08:31:24.285Z,52.63
2023-04-09T08:33:53.674Z,52.00
2023-04-09T08:36:21.849Z,51.55
2023-04-09T08:38:50.284Z,51.47
2023-04-09T08:41:24.544Z,51.65
2023-04-09T08:43:58.124Z,51.24
2023-04-09T08:46:27.867Z,50.73
2023-04-09T08:48:57.394Z,50.74
2023-04-09T08:51:25.839Z,50.88
2023-04-09T08:54:03.641Z,50.87
2023-04-09T08:56:33.065Z,50.75
2023-04-09T08:59:01.816Z,50.66
2023-04-09T09:01:31.128Z,50.46
2023-04-09T09:04:02.161Z,50.31
2023-04-09T09:06:35.713Z,49.98
2023-04-09T09:09:11.660Z,49.47
2023-04-09T09:11:43.760Z,49.37
2023-04-09T09:14:18.544Z,49.09
2023-04-09T09:17:04.070Z,48.25
2023-04-09T09:19:36.662Z,47.53
2023-04-09T09:22:11.135Z,47.15
2023-04-09T09:24:51.865Z,46.56
2023-04-09T09:27:36.924Z,46.17
2023-04-09T09:30:07.358Z,46.14
2023-04-09T09:32:35.913Z,45.33
2023-04-09T09:35:07.716Z,44.94
2023-04-09T09:37:36.231Z,44.58
2023-04-09T09:40:05.079Z,44.18
2023-04-09T09:42:37.411Z,43.77
2023-04-09T09:45:17.750Z,43.36
2023-04-09T09:47:48.990Z,43.70
2023-04-09T09:50:17.793Z,44.14
2023-04-09T09:52:46.181Z,44.00
2023-04-09T09:55:15.728Z,43.63
2023-04-09T09:57:44.832Z,42.96
2023-04-09T10:00:19.200Z,42.76
2023-04-09T10:03:20.144Z,42.70
2023-04-09T10:05:48.808Z,42.24
2023-04-09T10:08:18.338Z,42.03
2023-04-09T10:10:47.137Z,41.89
2023-04-09T10:13:34.456Z,42.54
2023-04-09T10:16:03.224Z,42.78
2023-04-09T10:18:35.045Z,42.62
2023-04-09T10:21:42.613Z,41.83
2023-04-09T10:24:19.572Z,40.91
2023-04-09T10:26:47.834Z,41.63
2023-04-09T10:29:16.886Z,41.74
2023-04-09T10:32:21.816Z,42.08
2023-04-09T10:35:09.801Z,43.02
2023-04-09T10:37:40.189Z,42.98
2023-04-09T10:40:19.869Z,43.09
2023-04-09T10:42:49.317Z,43.09
2023-04-09T10:45:23.046Z,43.35
2023-04-09T10:47:54.218Z,43.36
2023-04-09T10:50:26.711Z,43.55
2023-04-09T10:52:59.904Z,42.95
2023-04-09T10:55:40.191Z,42.95
2023-04-09T10:58:13.699Z,43.01
2023-04-09T11:00:46.297Z,42.85
2023-04-09T11:03:26.340Z,43.11
2023-04-09T11:06:06.174Z,43.11
2023-04-09T11:08:40.206Z,43.52
2023-04-09T11:11:09.157Z,43.70
2023-04-09T11:13:41.815Z,43.56
2023-04-09T11:16:24.081Z,43.35
2023-04-09T11:19:03.125Z,42.96
2023-04-09T11:21:46.904Z,42.94
2023-04-09T11:24:16.047Z,43.07
2023-04-09T11:26:44.292Z,43.33
2023-04-09T11:29:15.131Z,43.25
2023-04-09T11:31:49.735Z,42.60
2023-04-09T11:34:37.845Z,42.54
2023-04-09T11:37:09.395Z,42.86
2023-04-09T11:39:40.958Z,42.48
2023-04-09T11:42:13.615Z,42.35
2023-04-09T11:44:47.321Z,42.26
2023-04-09T11:47:31.878Z,42.39
2023-04-09T11:50:03.135Z,42.17
2023-04-09T11:52:37.050Z,41.92
2023-04-09T11:55:09.412Z,41.38
2023-04-09T11:57:50.733Z,41.03
2023-04-09T12:00:21.177Z,41.46
2023-04-09T12:03:04.069Z,42.24
2023-04-09T12:05:49.217Z,42.63
2023-04-09T12:08:23.819Z,42.37
2023-04-09T12:11:08.187Z,42.07
2023-04-09T12:13:44.749Z,42.47
2023-04-09T12:16:14.280Z,42.08
2023-04-09T12:19:03.100Z,41.96
2023-04-09T12:21:49.976Z,41.87
2023-04-09T12:24:20.160Z,41.13
2023-04-09T12:26:53.841Z,40.41
2023-04-09T12:29:22.216Z,40.19
2023-04-09T12:31:51.198Z,40.25
2023-04-09T12:34:27.332Z,40.04
2023-04-09T12:36:56.237Z,39.42
2023-04-09T12:39:24.461Z,39.59
2023-04-09T12:41:56.135Z,40.02
2023-04-09T12:44:37.399Z,40.78
2023-04-09T12:47:05.785Z,41.78
2023-04-09T12:49:41.727Z,42.79
2023-04-09T12:52:11.145Z,44.02
2023-04-09T12:54:42.470Z,45.29
2023-04-09T12:57:13.029Z,46.77
2023-04-09T12:59:45.354Z,47.78
2023-04-09T13:02:13.798Z,49.90
2023-04-09T13:04:43.131Z,51.78
2023-04-09T13:07:13.204Z,53.18
2023-04-09T13:09:46.111Z,54.42
2023-04-09T13:12:15.690Z,55.52
2023-04-09T13:14:47.796Z,56.12
2023-04-09T13:17:18.951Z,56.69
2023-04-09T13:19:48.628Z,57.08
2023-04-09T13:22:18.352Z,57.70
2023-04-09T13:24:48.351Z,58.00
2023-04-09T13:27:18.787Z,58.27
2023-04-09T13:29:51.256Z,58.64
2023-04-09T13:32:21.259Z,59.02
2023-04-09T13:34:51.585Z,59.44
2023-04-09T13:37:20.178Z,60.07
2023-04-09T13:39:50.080Z,60.29
2023-04-09T13:42:19.259Z,60.45
2023-04-09T13:44:47.460Z,60.73
2023-04-09T13:47:17.315Z,61.34
2023-04-09T13:49:51.598Z,61.62
2023-04-09T13:52:19.787Z,61.77
2023-04-09T13:54:53.276Z,62.02
2023-04-09T13:57:26.233Z,61.91
2023-04-09T13:59:54.652Z,61.95
2023-04-09T14:02:28.194Z,61.58
2023-04-09T14:04:57.234Z,61.06
2023-04-09T14:07:27.148Z,60.70
2023-04-09T14:09:55.730Z,60.81
2023-04-09T14:12:24.275Z,60.72
2023-04-09T14:14:52.312Z,60.82
2023-04-09T14:17:20.731Z,60.84
2023-04-09T14:19:49.029Z,61.03
2023-04-09T14:22:19.188Z,61.26
2023-04-09T14:24:48.351Z,61.47
2023-04-09T14:27:17.141Z,61.49
2023-04-09T14:29:46.450Z,61.42
2023-04-09T14:32:23.323Z,61.71
2023-04-09T14:35:11.258Z,61.96
2023-04-09T14:37:42.406Z,62.01
2023-04-09T14:40:13.859Z,62.09
2023-04-09T14:42:45.820Z,62.24
2023-04-09T14:45:25.062Z,62.64
2023-04-09T14:47:55.128Z,62.83
2023-04-09T14:50:26.554Z,62.96
2023-04-09T14:52:56.929Z,63.11
2023-04-09T14:55:44.952Z,63.10
2023-04-09T14:58:19.727Z,63.07
2023-04-09T15:00:58.988Z,63.16
2023-04-09T15:03:31.484Z,63.18
2023-04-09T15:06:12.602Z,63.23
2023-04-09T15:08:40.883Z,63.42
2023-04-09T15:11:18.078Z,63.44
2023-04-09T15:13:56.467Z,63.51
2023-04-09T15:16:27.479Z,63.57
2023-04-09T15:19:05.427Z,64.00
2023-04-09T15:21:38.859Z,64.16
2023-04-09T15:24:08.155Z,64.48
2023-04-09T15:26:39.995Z,64.72
2023-04-09T15:29:22.176Z,64.96
2023-04-09T15:31:56.467Z,65.00
2023-04-09T15:34:32.674Z,65.15
2023-04-09T15:37:04.543Z,65.19
2023-04-09T15:39:32.816Z,65.09
2023-04-09T15:42:02.308Z,65.21
2023-04-09T15:44:31.728Z,65.23
2023-04-09T15:47:10.536Z,65.37
2023-04-09T15:49:43.116Z,65.51
2023-04-09T15:52:15.865Z,65.63
2023-04-09T15:54:46.992Z,65.71
2023-04-09T15:57:22.261Z,65.70
2023-04-09T16:12:43.937Z,66.00
2023-04-09T16:15:13.963Z,64.66
2023-04-09T16:17:45.831Z,64.50
2023-04-09T16:20:26.750Z,64.31
2023-04-09T16:22:57.135Z,64.43
2023-04-09T16:25:26.778Z,64.55
2023-04-09T16:27:57.254Z,64.78
2023-04-09T16:30:28.945Z,64.78
2023-04-09T16:32:59.026Z,64.85
2023-04-09T16:35:27.168Z,65.08
2023-04-09T16:38:09.566Z,65.20
2023-04-09T16:40:39.690Z,65.32
2023-04-09T16:43:12.299Z,65.54
2023-04-09T16:45:40.814Z,65.75
2023-04-09T16:48:28.838Z,65.84
2023-04-09T16:51:03.922Z,65.97
2023-04-09T16:53:38.833Z,66.18
2023-04-09T16:56:10.791Z,66.37
2023-04-09T16:58:39.520Z,66.42
2023-04-09T17:01:08.428Z,66.58
2023-04-09T17:03:49.828Z,66.91
2023-04-09T17:06:18.777Z,66.91
2023-04-09T17:08:48.062Z,66.90
2023-04-09T17:11:17.257Z,66.95
2023-04-09T17:13:51.796Z,66.98
2023-04-09T17:16:24.924Z,67.14
2023-04-09T17:18:53.525Z,67.06
2023-04-09T17:21:27.611Z,67.12
2023-04-09T17:24:04.678Z,67.37
2023-04-09T17:26:34.903Z,67.28
2023-04-09T17:29:04.291Z,67.47
2023-04-09T17:31:32.676Z,67.30
2023-04-09T17:34:19.600Z,67.28
2023-04-09T17:36:56.584Z,67.39
2023-04-09T17:39:32.845Z,67.43
2023-04-09T17:42:03.690Z,67.69
2023-04-09T17:44:39.420Z,67.78
2023-04-09T17:47:12.520Z,67.70
2023-04-09T17:49:42.702Z,67.72
2023-04-09T17:52:15.005Z,67.76
2023-04-09T17:54:47.211Z,67.78
2023-04-09T17:57:15.664Z,67.44
2023-04-09T17:59:49.109Z,67.50
2023-04-09T18:02:18.212Z,67.70
2023-04-09T18:04:53.398Z,67.93
2023-04-09T18:07:22.485Z,68.01
2023-04-09T18:09:52.428Z,68.00
2023-04-09T18:12:20.877Z,68.00
2023-04-09T18:14:59.509Z,67.91
2023-04-09T18:17:32.609Z,67.79
2023-04-09T18:20:01.563Z,67.78
2023-04-09T18:22:30.986Z,67.70
2023-04-09T18:25:00.087Z,67.80
2023-04-09T18:27:29.892Z,67.86
2023-04-09T18:29:59.502Z,67.88
2023-04-09T18:32:39.922Z,67.84
2023-04-09T18:35:11.230Z,67.88
2023-04-09T18:37:42.662Z,67.80
2023-04-09T18:40:13.902Z,67.79
2023-04-09T18:42:42.023Z,67.86
2023-04-09T18:45:11.279Z,67.97
2023-04-09T18:47:40.960Z,68.12
2023-04-09T18:50:10.701Z,68.02
2023-04-09T18:52:44.216Z,67.95
2023-04-09T18:55:13.815Z,67.70
2023-04-09T18:57:44.443Z,67.57
2023-04-09T19:00:13.345Z,67.65
2023-04-09T19:02:41.763Z,67.41
2023-04-09T19:05:12.037Z,67.42
2023-04-09T19:07:40.420Z,67.53
2023-04-09T19:10:09.325Z,67.48
2023-04-09T19:12:38.221Z,67.47
2023-04-09T19:15:07.840Z,67.39
2023-04-09T19:17:35.962Z,67.48
2023-04-09T19:20:05.745Z,67.39
2023-04-09T19:22:34.193Z,67.44
2023-04-09T19:25:07.529Z,67.33
2023-04-09T19:27:36.470Z,67.42
2023-04-09T19:30:08.169Z,67.46
2023-04-09T19:32:37.038Z,67.46
2023-04-09T19:35:07.182Z,67.60
2023-04-09T19:37:35.328Z,67.55
2023-04-09T19:40:04.762Z,67.53
2023-04-09T19:42:33.460Z,67.54
2023-04-09T19:45:05.871Z,67.58
2023-04-09T19:47:35.002Z,67.80
2023-04-09T19:50:03.267Z,67.87
2023-04-09T19:52:33.282Z,67.80
2023-04-09T19:55:02.119Z,67.71
2023-04-09T19:57:32.475Z,67.81
2023-04-09T20:00:01.060Z,67.96
2023-04-09T20:02:37.949Z,68.14
2023-04-09T20:05:07.761Z,67.96
2023-04-09T20:07:36.282Z,68.05
2023-04-09T20:12:57.633Z,68.96
2023-04-09T20:15:30.284Z,68.32
2023-04-09T20:18:02.012Z,68.19
2023-04-09T20:20:33.487Z,68.01
2023-04-09T20:23:03.806Z,68.14
2023-04-09T20:25:36.825Z,68.09
2023-04-09T20:28:10.604Z,67.95
2023-04-09T20:30:40.934Z,67.89
2023-04-09T20:33:09.871Z,67.70
2023-04-09T20:35:42.850Z,67.64
2023-04-09T20:38:12.881Z,67.61
2023-04-09T20:40:42.013Z,67.75
2023-04-09T20:43:13.040Z,67.57
2023-04-09T20:45:47.437Z,67.58
2023-04-09T20:48:19.060Z,67.58
2023-04-09T20:50:47.183Z,67.62
2023-04-09T20:53:18.049Z,67.59
2023-04-09T20:55:49.053Z,67.36
2023-04-09T20:58:19.997Z,67.34
2023-04-09T21:01:06.853Z,67.37
2023-04-09T21:03:36.177Z,67.58
2023-04-09T21:06:06.886Z,67.52
2023-04-09T21:08:36.724Z,67.44
2023-04-09T21:11:07.376Z,67.25
2023-04-09T21:13:53.790Z,67.23
2023-04-09T21:16:27.406Z,67.15
2023-04-09T21:19:09.300Z,67.27
2023-04-09T21:21:41.364Z,67.20
2023-04-09T21:24:20.506Z,67.06
2023-04-09T21:26:52.371Z,66.81
2023-04-09T21:29:23.692Z,67.16
2023-04-09T21:32:06.501Z,67.28
2023-04-09T21:34:39.657Z,67.10
2023-04-09T21:37:14.464Z,66.93
2023-04-09T21:39:52.360Z,66.88
2023-04-09T21:42:25.295Z,67.08
2023-04-09T21:44:57.088Z,67.27
2023-04-09T21:47:28.734Z,67.22
2023-04-09T21:50:18.536Z,67.21
2023-04-09T21:53:03.722Z,67.19
2023-04-09T21:55:37.475Z,67.28
2023-04-09T21:58:08.329Z,67.41
2023-04-09T22:00:39.522Z,67.24
2023-04-09T22:03:19.809Z,67.15
2023-04-09T22:05:54.964Z,67.18
2023-04-09T22:08:26.321Z,67.13
2023-04-09T22:10:59.359Z,67.06
2023-04-09T22:13:35.223Z,66.72
2023-04-09T22:16:08.835Z,66.51
2023-04-09T22:18:39.889Z,66.52
2023-04-09T22:21:16.110Z,66.67
2023-04-09T22:23:45.607Z,67.05
2023-04-09T22:26:14.344Z,67.13
2023-04-09T22:28:43.791Z,67.12
2023-04-09T22:31:12.645Z,66.97
2023-04-09T22:33:41.633Z,66.92
2023-04-09T22:36:10.486Z,66.83
2023-04-09T22:38:43.311Z,66.78
2023-04-09T22:41:11.544Z,66.72
2023-04-09T22:43:39.615Z,66.79
2023-04-09T22:46:10.637Z,66.82
2023-04-09T22:48:44.587Z,66.70
2023-04-09T22:51:13.930Z,66.76
2023-04-09T22:53:42.227Z,66.63
2023-04-09T22:56:11.383Z,66.70
2023-04-09T22:58:41.291Z,66.78
2023-04-09T23:01:09.656Z,66.60
2023-04-09T23:03:41.844Z,66.57
2023-04-09T23:06:13.651Z,66.69
2023-04-09T23:08:43.049Z,66.62
2023-04-09T23:11:11.280Z,66.41
2023-04-09T23:13:45.550Z,66.46
2023-04-09T23:16:13.848Z,66.49
2023-04-09T23:18:44.454Z,66.57
2023-04-09T23:21:16.504Z,66.64
2023-04-09T23:23:44.951Z,66.61
2023-04-09T23:26:21.802Z,66.57
2023-04-09T23:28:52.662Z,66.42
2023-04-09T23:31:26.324Z,66.50
2023-04-09T23:33:55.049Z,66.40
2023-04-09T23:36:26.765Z,66.46
2023-04-09T23:38:59.365Z,66.41
2023-04-09T23:44:10.711Z,66.34
2023-04-09T23:46:53.398Z,66.37
2023-04-09T23:49:21.719Z,66.48
2023-04-09T23:51:55.637Z,66.59
2023-04-09T23:54:24.241Z,66.60
2023-04-09T23:57:06.313Z,66.78
2023-04-09T23:59:36.032Z,66.76
